Terminal Aerodrome Forecast
Issued by NWS

Home | Current Version | Previous Version | Text Only | Print | Product List | Glossary On
Versions: 1 2 3 4 5 6 7 8 9 10 11 12 13 14 15 16 17 18 19 20
081
FTUS42 KTAE 221720
TAFECP
TAF
KECP 221720Z 2218/2318 04007KT P6SM SCT250
     FM231200 08010KT P6SM SCT020
     FM231500 11009KT P6SM FEW045 SCT250=

USA.gov is the U.S. government's official web portal to all federal, state and local government web resources and services.